Portada
METAR-TAF:

METAR-TAF

Aeroports :

Estrasburg, França

latitud: 48-33N, longitud: 007-38E, altitud: 153 m

Observació

L'informe es va fer fa 29 minuts, a les 10:30 UTC
Vent 5 kt amb direcció variable
Temperatura 22°C
Humitat 50%
Pressió 1018 hPa
Visibilitat 10 km o més
sense núvols per sota de 1500 mi sense presència de cumulonimbus.

METAR: LFST 161030Z AUTO VRB05KT CAVOK 22/11 Q1018 NOSIG

Hora: 12:59 (10:59 UTC)

Pronòstic

L'informe es va fer fa 5 hores i 59 minuts, a les 05:00 UTC
Pronòstic vàlid del 16 a les 06 UTC al 17 a les 06 UTC
Vent 8 kt del Nord
Visibilitat 10 km o més
sense núvols per sota de 1500 mi sense presència de cumulonimbus.
Probabilitat 40% :
Temporalment
l' 16 a les 22 UTC al 17 a les 05 UTC
Visibilitat: 4000 m
boirina

TAF: LFST 160500Z 1606/1706 36008KT CAVOK PROB40 TEMPO 1622/1705 4000 BR

Observacions i pronòstics meteorològics de més de 4000 aeroports (METAR i TAF).

Les estacions disponibles són els punts grocs i vermells al mapa.

Posi el ratolí al punt desitjat per veure el nom de l'estació.

Feu clic per veure les observacions i els pronòstics meteorològics.

Per canviar el mapa: feu clic els botons verds amb una creu de color negre per apropar; al botó verd amb un guió per allunyar la imatge; o en les fletxes verdes per a mapes adjacents.


METAR-TAF: